Avon, Iowa
Current Conditions -  °F | °C
As of 10:12 PM on Saturday 22 Nov 2014 (Local Time) from KDSM Reporting Station
Overcast Overcast  
Wind Chill: 54°   Ceiling: 1300
Heat Index: 54°   Visibility: 10mi
Dew Point: 49°   Wind: 18mph
Humidity: 83%   Direction: 200°SSW
Pressure: 29.65"   Gusts: 24mph
Location:  41.4707°N, 93.4797°W
Report Text: KDSM 230412Z 20016G21KT 10SM OVC013 12/09 A2965 RMK AO2 T01220094
Loading
Personal Weather Stations






























Interactive Weather Map New forecast layout! Learn more

10-Day Weather Forecast

Advertisements
Track Severe Weather on mobile